Time;durP1;ratioP1;P1;durP2;ratioP2;P2;SDS_P1;SDS_P2;PMS_P1;PMS_P2;Temp;Humidity;BMP_temperature;BMP_pressure;BME280_temperature;BME280_humidity;BME280_pressure;Samples;Min_cycle;Max_cycle;Signal;HPM_P1;HPM_P2
2022/03/25 00:02:03;;;;;;;13.68;6.47;;;;;;;14.44;23.62;99876.75;5031675;28;20712;-48
2022/03/25 00:04:29;;;;;;;12.85;6.57;;;;;;;14.36;23.43;99869.84;5031548;28;20029;-51
2022/03/25 00:06:54;;;;;;;11.63;6.43;;;;;;;14.59;23.19;99871.03;5051011;28;20501;-49
2022/03/25 00:09:20;;;;;;;15.80;6.45;;;;;;;14.53;22.97;99855.84;5051446;28;20035;-49
2022/03/25 00:11:46;;;;;;;9.30;6.45;;;;;;;14.61;23.28;99863.59;5051138;28;20025;-49
2022/03/25 00:14:11;;;;;;;12.30;6.38;;;;;;;14.29;23.70;99871.78;5050678;28;20064;-49
2022/03/25 00:16:37;;;;;;;13.98;6.57;;;;;;;14.23;23.31;99870.81;5051301;28;20107;-49
2022/03/25 00:19:03;;;;;;;9.07;6.15;;;;;;;14.24;23.61;99875.13;5051138;28;20017;-50
2022/03/25 00:21:29;;;;;;;9.40;6.35;;;;;;;14.41;23.00;99861.97;5051202;28;20032;-49
2022/03/25 00:23:54;;;;;;;13.70;6.47;;;;;;;14.79;22.71;99863.53;5051040;28;20409;-52
2022/03/25 00:26:20;;;;;;;10.48;5.80;;;;;;;14.58;23.15;99869.38;5050829;28;20083;-52
2022/03/25 00:28:45;;;;;;;8.90;6.30;;;;;;;14.43;23.31;99859.03;5050239;28;20025;-52
2022/03/25 00:31:11;;;;;;;16.25;6.68;;;;;;;14.43;23.31;99865.22;5050679;28;20021;-50
2022/03/25 00:33:37;;;;;;;8.95;6.00;;;;;;;14.68;22.82;99866.16;5050774;28;20453;-49
2022/03/25 00:36:03;;;;;;;8.23;6.00;;;;;;;14.43;23.32;99872.44;5051131;28;20033;-49
2022/03/25 00:38:29;;;;;;;11.55;6.47;;;;;;;14.55;22.82;99854.56;5050879;28;20028;-49
2022/03/25 00:40:55;;;;;;;11.18;6.35;;;;;;;14.86;23.00;99868.78;5051034;28;20453;-51
2022/03/25 00:43:22;;;;;;;10.85;6.63;;;;;;;14.77;22.95;99854.09;5050898;28;20025;-51
2022/03/25 00:45:48;;;;;;;10.63;6.57;;;;;;;14.63;23.27;99866.84;5050868;28;20675;-49
2022/03/25 00:48:14;;;;;;;9.77;6.30;;;;;;;14.43;23.46;99867.06;5051002;28;20089;-50
2022/03/25 00:50:40;;;;;;;10.13;6.05;;;;;;;14.41;23.85;99863.81;5051085;28;20025;-50
2022/03/25 00:53:06;;;;;;;12.95;6.10;;;;;;;13.93;24.41;99862.72;5050685;28;20401;-49
2022/03/25 00:55:32;;;;;;;8.75;5.90;;;;;;;13.97;24.10;99858.56;5051006;28;20044;-48
2022/03/25 00:57:58;;;;;;;11.18;6.57;;;;;;;13.94;24.20;99864.38;5050519;28;20114;-48
2022/03/25 01:00:24;;;;;;;12.90;6.25;;;;;;;13.91;24.35;99864.00;5050958;28;20579;-48
2022/03/25 01:02:50;;;;;;;11.25;6.47;;;;;;;13.83;24.65;99855.22;5050810;28;20025;-52
2022/03/25 01:05:17;;;;;;;13.23;6.28;;;;;;;13.87;24.60;99858.25;5050567;28;20132;-52
2022/03/25 01:07:43;;;;;;;12.07;6.40;;;;;;;13.86;24.74;99864.66;5050200;28;20033;-48
2022/03/25 01:10:10;;;;;;;9.40;6.25;;;;;;;13.74;24.99;99851.19;5050075;28;20054;-49
2022/03/25 01:12:35;;;;;;;11.07;6.65;;;;;;;13.75;25.03;99852.84;5050580;28;20151;-49
2022/03/25 01:15:02;;;;;;;11.50;6.38;;;;;;;13.77;24.73;99856.09;5050394;28;20032;-49
2022/03/25 01:17:27;;;;;;;11.48;6.80;;;;;;;13.83;24.99;99852.53;5050258;28;20040;-48
2022/03/25 01:19:53;;;;;;;12.98;6.53;;;;;;;13.65;24.90;99850.69;5050078;28;20021;-49
2022/03/25 01:22:18;;;;;;;10.93;6.30;;;;;;;13.76;24.99;99849.09;5050020;28;20029;-48
2022/03/25 01:24:44;;;;;;;12.65;6.22;;;;;;;13.99;24.70;99851.16;5051203;28;20029;-48
2022/03/25 01:27:10;;;;;;;11.20;6.57;;;;;;;13.79;24.83;99839.84;5050949;28;20017;-48
2022/03/25 01:29:35;;;;;;;12.13;7.40;;;;;;;13.79;25.30;99845.19;5051262;28;20113;-47
2022/03/25 01:32:01;;;;;;;13.75;6.38;;;;;;;13.68;25.30;99838.72;5054283;28;20402;-47
2022/03/25 01:34:27;;;;;;;10.88;6.18;;;;;;;13.79;24.98;99851.34;5054616;28;20418;-47
2022/03/25 01:36:53;;;;;;;11.07;6.18;;;;;;;13.35;25.44;99855.88;5054207;28;20031;-49
2022/03/25 01:39:19;;;;;;;10.80;6.55;;;;;;;13.30;25.96;99859.19;5054309;28;20031;-50
2022/03/25 01:41:47;;;;;;;9.75;6.70;;;;;;;13.18;25.73;99857.44;5054231;28;20040;-49
2022/03/25 01:44:14;;;;;;;9.15;6.22;;;;;;;13.20;25.88;99842.81;5054274;28;20480;-48
2022/03/25 01:46:39;;;;;;;13.63;6.70;;;;;;;13.19;25.89;99856.38;5053536;28;20025;-48
2022/03/25 01:49:05;;;;;;;11.70;6.65;;;;;;;13.21;26.21;99857.81;5053974;28;20483;-48
2022/03/25 01:51:36;;;;;;;10.38;6.28;;;;;;;13.36;25.68;99860.19;5053892;28;20029;-48
2022/03/25 01:54:27;;;;;;;12.80;6.10;;;;;;;13.11;25.68;99855.63;5053856;28;20043;-47
2022/03/25 01:56:59;;;;;;;10.88;6.57;;;;;;;13.38;26.02;99862.63;5054007;28;20500;-48
2022/03/25 01:59:25;;;;;;;9.98;6.40;;;;;;;13.09;26.46;99857.69;5053742;28;20504;-49
2022/03/25 02:01:51;;;;;;;12.38;7.18;;;;;;;13.01;26.33;99863.31;5054306;28;20096;-48
2022/03/25 02:04:17;;;;;;;12.70;6.60;;;;;;;12.77;26.99;99869.41;5054099;28;20020;-51
2022/03/25 02:06:44;;;;;;;12.32;6.50;;;;;;;12.79;26.60;99875.34;5053745;28;20060;-48
2022/03/25 02:09:10;;;;;;;10.65;6.53;;;;;;;12.66;27.11;99862.91;5053938;28;20029;-48
2022/03/25 02:11:35;;;;;;;9.98;6.53;;;;;;;12.78;26.61;99874.56;5053851;28;20044;-48
2022/03/25 02:14:02;;;;;;;14.02;7.43;;;;;;;12.67;27.09;99886.72;5053510;28;20551;-50
2022/03/25 02:16:35;;;;;;;12.50;6.60;;;;;;;13.14;27.03;99891.78;5053750;28;20496;-49
2022/03/25 02:19:01;;;;;;;13.35;6.68;;;;;;;13.28;26.70;99882.63;5054113;28;20017;-48
2022/03/25 02:21:33;;;;;;;11.35;7.07;;;;;;;13.63;26.04;99884.84;5053565;28;20385;-48
2022/03/25 02:24:00;;;;;;;8.48;6.38;;;;;;;13.37;26.24;99890.41;5053540;28;20099;-51
2022/03/25 02:26:26;;;;;;;10.27;6.50;;;;;;;13.46;25.97;99889.94;5053719;28;20063;-48
2022/03/25 02:28:52;;;;;;;12.45;6.25;;;;;;;13.23;26.71;99884.31;5053348;28;20040;-52
2022/03/25 02:31:18;;;;;;;14.93;6.63;;;;;;;13.06;26.73;99892.88;5053443;28;20025;-49
2022/03/25 02:33:43;;;;;;;11.88;6.32;;;;;;;12.78;26.69;99885.22;5052876;28;20017;-52
2022/03/25 02:36:09;;;;;;;13.40;6.43;;;;;;;12.76;27.54;99892.66;5053132;28;20032;-51
2022/03/25 02:38:35;;;;;;;11.00;6.28;;;;;;;13.07;27.17;99886.47;5053287;28;20060;-51
2022/03/25 02:41:01;;;;;;;11.30;6.50;;;;;;;12.76;27.71;99883.81;5051930;28;20477;-48
2022/03/25 02:43:27;;;;;;;11.88;6.50;;;;;;;13.13;27.01;99881.31;5053105;28;20092;-50
2022/03/25 02:45:53;;;;;;;10.73;6.30;;;;;;;12.99;27.06;99877.91;5052709;28;20028;-49
2022/03/25 02:48:18;;;;;;;15.38;6.50;;;;;;;12.94;27.36;99893.78;5053048;28;20456;-49
2022/03/25 02:50:46;;;;;;;19.02;6.60;;;;;;;12.90;27.36;99896.03;5053027;28;20048;-50
2022/03/25 02:53:13;;;;;;;12.20;6.88;;;;;;;12.77;27.58;99891.59;5053154;28;20395;-49
2022/03/25 02:55:38;;;;;;;11.77;6.50;;;;;;;12.82;27.28;99891.78;5052914;28;20036;-48
2022/03/25 02:58:04;;;;;;;12.60;6.70;;;;;;;12.93;26.89;99892.13;5053629;28;20021;-48
2022/03/25 03:00:31;;;;;;;10.20;6.13;;;;;;;12.75;27.60;99898.19;5053175;28;20473;-50
2022/03/25 03:03:00;;;;;;;10.43;6.38;;;;;;;12.69;27.30;99902.53;5053135;28;20100;-49
2022/03/25 03:05:29;;;;;;;11.65;6.65;;;;;;;12.33;28.24;99895.91;5052698;28;20120;-48
2022/03/25 03:07:55;;;;;;;10.38;6.38;;;;;;;11.99;27.97;99892.53;5052899;28;20028;-49
2022/03/25 03:10:21;;;;;;;12.68;6.78;;;;;;;12.08;28.85;99895.78;5052148;28;20096;-52
2022/03/25 03:12:46;;;;;;;11.18;6.50;;;;;;;12.39;27.55;99891.56;5052576;28;20020;-49
2022/03/25 03:15:15;;;;;;;11.52;6.45;;;;;;;12.41;28.19;99887.66;5052477;28;20111;-51
2022/03/25 03:17:41;;;;;;;13.93;6.70;;;;;;;12.60;27.49;99890.47;5052807;28;20482;-51
2022/03/25 03:20:07;;;;;;;11.00;6.97;;;;;;;12.30;27.82;99889.16;5052172;28;20017;-48
2022/03/25 03:22:33;;;;;;;12.68;6.88;;;;;;;12.62;27.17;99877.72;5052401;28;20025;-52
2022/03/25 03:24:59;;;;;;;14.23;6.97;;;;;;;12.39;27.75;99892.38;5052791;28;20100;-50
2022/03/25 03:27:25;;;;;;;12.70;6.75;;;;;;;12.70;27.45;99882.81;5052583;28;20437;-50
2022/03/25 03:29:50;;;;;;;12.07;7.07;;;;;;;12.38;27.21;99882.75;5052014;28;20100;-50
2022/03/25 03:32:18;;;;;;;17.60;6.90;;;;;;;12.46;27.24;99882.50;5052406;28;20389;-49
2022/03/25 03:34:43;;;;;;;11.27;6.50;;;;;;;12.44;27.34;99867.75;5052307;28;20056;-48
2022/03/25 03:37:09;;;;;;;11.55;6.32;;;;;;;12.59;27.26;99873.63;5050812;28;20025;-49
2022/03/25 03:39:34;;;;;;;14.68;6.50;;;;;;;12.44;27.91;99873.09;5051743;28;20032;-50
2022/03/25 03:42:02;;;;;;;13.00;6.55;;;;;;;12.24;27.48;99875.81;5051967;28;20025;-49
2022/03/25 03:44:27;;;;;;;11.98;6.40;;;;;;;12.33;27.96;99870.03;5052154;28;20071;-48
2022/03/25 03:46:53;;;;;;;11.35;7.38;;;;;;;12.40;27.97;99874.56;5051996;28;20469;-48
2022/03/25 03:49:18;;;;;;;11.52;6.63;;;;;;;12.45;27.39;99878.22;5052161;28;20032;-48
2022/03/25 03:51:44;;;;;;;11.57;6.28;;;;;;;12.40;27.39;99880.69;5052159;28;20070;-49
2022/03/25 03:54:09;;;;;;;9.48;6.22;;;;;;;12.48;27.69;99877.78;5051584;28;20017;-48
2022/03/25 03:56:35;;;;;;;14.20;6.60;;;;;;;12.22;27.77;99875.22;5052254;28;20074;-49
2022/03/25 03:59:00;;;;;;;15.90;6.68;;;;;;;12.07;27.78;99875.47;5052099;28;20021;-49
2022/03/25 04:01:26;;;;;;;11.20;6.30;;;;;;;12.25;27.98;99875.63;5052017;28;20066;-50
2022/03/25 04:03:51;;;;;;;12.45;6.32;;;;;;;12.20;28.11;99872.75;5051792;28;20016;-49
2022/03/25 04:06:17;;;;;;;14.48;6.40;;;;;;;11.88;28.74;99871.78;5051516;28;20044;-48
2022/03/25 04:08:42;;;;;;;13.05;6.40;;;;;;;12.10;28.29;99875.88;5051734;28;20087;-49
2022/03/25 04:11:08;;;;;;;10.68;6.40;;;;;;;12.16;28.22;99860.06;5051541;28;20074;-48
2022/03/25 04:13:33;;;;;;;13.93;7.05;;;;;;;12.23;27.70;99871.53;5051533;28;20465;-49
2022/03/25 04:15:59;;;;;;;10.88;6.63;;;;;;;12.00;28.85;99864.03;5051436;28;20095;-49
2022/03/25 04:18:24;;;;;;;10.35;6.47;;;;;;;12.11;28.49;99864.19;5051096;28;20048;-48
2022/03/25 04:20:50;;;;;;;13.05;6.82;;;;;;;12.48;27.54;99863.63;5051083;28;20020;-47
2022/03/25 04:23:16;;;;;;;15.13;6.72;;;;;;;12.30;31.62;99864.31;5051163;28;20031;-48
2022/03/25 04:25:42;;;;;;;13.13;6.28;;;;;;;12.40;30.69;99864.69;5050996;28;20059;-48
2022/03/25 04:28:08;;;;;;;9.93;5.95;;;;;;;12.11;33.81;99872.19;5050823;28;20021;-48
2022/03/25 04:30:35;;;;;;;10.20;6.28;;;;;;;12.59;31.47;99872.81;5050448;28;20017;-47
2022/03/25 04:33:02;;;;;;;13.57;6.22;;;;;;;12.19;37.21;99873.00;5050681;28;20044;-48
2022/03/25 04:35:28;;;;;;;18.40;9.70;;;;;;;11.81;33.21;99877.16;5050054;28;20128;-48
2022/03/25 04:37:54;;;;;;;52.72;25.13;;;;;;;11.76;29.80;99882.28;5049929;28;20017;-51
2022/03/25 04:40:22;;;;;;;26.48;15.55;;;;;;;11.69;29.70;99882.31;5049346;28;20045;-51
2022/03/25 04:42:48;;;;;;;42.10;21.90;;;;;;;11.88;29.72;99874.47;5049512;28;20063;-49
2022/03/25 04:45:14;;;;;;;11.90;6.22;;;;;;;11.87;29.06;99883.50;5049217;28;20053;-49
2022/03/25 04:47:40;;;;;;;13.93;7.53;;;;;;;11.60;29.77;99880.88;5049267;28;20036;-52
2022/03/25 04:50:06;;;;;;;16.48;8.32;;;;;;;11.28;30.91;99891.34;5049198;28;20599;-49
2022/03/25 04:52:32;;;;;;;10.93;6.53;;;;;;;11.67;29.89;99884.38;5048698;28;20021;-49
2022/03/25 04:54:58;;;;;;;10.30;6.13;;;;;;;12.33;28.40;99895.91;5050388;28;20112;-51
2022/03/25 04:57:23;;;;;;;11.88;6.85;;;;;;;12.16;29.39;99894.75;5050163;28;20021;-48
2022/03/25 04:59:49;;;;;;;15.68;6.13;;;;;;;12.07;29.20;99897.66;5049452;28;20020;-50
2022/03/25 05:02:15;;;;;;;10.48;6.35;;;;;;;12.06;29.49;99901.34;5049332;28;20127;-49
2022/03/25 05:04:41;;;;;;;12.40;6.30;;;;;;;12.42;28.72;99893.84;5051289;28;20025;-49
2022/03/25 05:07:06;;;;;;;10.43;6.57;;;;;;;12.85;28.13;99907.38;5053531;28;20053;-49
2022/03/25 05:09:33;;;;;;;15.23;6.50;;;;;;;12.15;29.37;99909.09;5053614;28;20082;-49
2022/03/25 05:11:59;;;;;;;15.55;6.25;;;;;;;12.07;29.89;99900.31;5053865;28;20108;-49
2022/03/25 05:14:25;;;;;;;11.32;6.40;;;;;;;12.08;29.09;99898.47;5054022;28;20103;-50
2022/03/25 05:16:52;;;;;;;17.15;7.38;;;;;;;12.51;28.22;99904.06;5053717;28;20044;-50
2022/03/25 05:19:19;;;;;;;11.18;6.10;;;;;;;12.83;28.34;99909.44;5053460;28;20025;-51
2022/03/25 05:21:44;;;;;;;13.10;6.68;;;;;;;12.30;28.40;99896.34;5053636;28;20507;-49
2022/03/25 05:24:10;;;;;;;12.90;6.20;;;;;;;12.54;29.15;99908.13;5054516;28;20025;-53
2022/03/25 05:26:36;;;;;;;14.55;6.38;;;;;;;12.79;28.03;99907.41;5054051;28;20504;-49
2022/03/25 05:29:01;;;;;;;8.10;5.35;;;;;;;13.51;27.66;99915.19;5041075;28;20032;-48
2022/03/25 05:31:27;;;;;;;16.38;6.10;;;;;;;13.78;27.26;99916.56;5042953;28;20107;-49
2022/03/25 05:33:52;;;;;;;17.42;6.85;;;;;;;14.24;26.45;99912.63;5052053;28;20021;-49
2022/03/25 05:36:18;;;;;;;18.70;6.45;;;;;;;14.62;26.09;99910.72;5049070;28;20021;-50
2022/03/25 05:38:43;;;;;;;10.82;6.05;;;;;;;14.99;25.77;99918.69;5036850;28;20024;-51
2022/03/25 05:41:09;;;;;;;12.32;6.22;;;;;;;15.73;25.20;99915.69;5034352;28;20051;-50
2022/03/25 05:43:34;;;;;;;22.42;9.60;;;;;;;16.06;24.84;99911.63;5033886;28;20037;-55
2022/03/25 05:46:00;;;;;;;12.50;6.53;;;;;;;16.14;24.05;99920.09;5032746;28;20026;-50
2022/03/25 05:48:26;;;;;;;13.05;6.10;;;;;;;16.30;23.72;99921.25;5032151;28;20504;-49
2022/03/25 05:50:51;;;;;;;15.35;6.22;;;;;;;16.11;24.33;99922.47;5032117;28;20021;-51
2022/03/25 05:53:17;;;;;;;13.25;6.38;;;;;;;16.49;23.25;99915.75;5032111;28;20054;-51
2022/03/25 05:55:42;;;;;;;14.57;6.65;;;;;;;16.67;23.63;99922.78;5030692;28;20021;-49
2022/03/25 05:58:08;;;;;;;15.10;6.55;;;;;;;17.27;23.06;99927.69;5030718;28;20025;-53
2022/03/25 06:00:34;;;;;;;14.30;8.48;;;;;;;17.30;22.57;99929.06;5031385;28;20532;-53
2022/03/25 06:02:59;;;;;;;48.63;26.85;;;;;;;17.57;22.44;99927.38;5031817;28;20025;-52
2022/03/25 06:05:25;;;;;;;14.35;7.07;;;;;;;18.51;21.48;99924.91;5038501;28;20052;-49
2022/03/25 06:07:50;;;;;;;15.05;6.40;;;;;;;18.66;20.59;99925.09;5051592;28;20029;-50
2022/03/25 06:10:16;;;;;;;14.10;6.35;;;;;;;18.41;21.32;99925.63;5052471;28;20021;-51
2022/03/25 06:12:41;;;;;;;11.15;6.40;;;;;;;18.47;20.70;99918.41;5052689;28;20104;-50
2022/03/25 06:15:08;;;;;;;14.13;6.25;;;;;;;18.94;20.95;99934.03;5052526;28;20095;-51
2022/03/25 06:17:40;;;;;;;12.15;6.88;;;;;;;19.51;20.14;99933.50;5052948;28;20506;-49
2022/03/25 06:20:07;;;;;;;12.85;6.60;;;;;;;19.01;20.74;99931.94;5053341;28;20017;-50
2022/03/25 06:22:34;;;;;;;11.70;6.63;;;;;;;18.95;20.99;99928.38;5052877;28;20129;-51
2022/03/25 06:24:59;;;;;;;14.85;7.00;;;;;;;19.51;20.24;99941.59;5052620;28;20025;-50
2022/03/25 06:27:24;;;;;;;14.38;6.95;;;;;;;19.78;20.08;99937.19;5052296;28;20032;-49
2022/03/25 06:29:50;;;;;;;13.18;6.60;;;;;;;19.34;20.24;99932.78;5052543;28;20017;-49
2022/03/25 06:32:16;;;;;;;11.18;6.68;;;;;;;19.68;19.92;99936.03;5052846;28;20021;-51
2022/03/25 06:34:41;;;;;;;13.40;6.40;;;;;;;19.72;20.00;99934.50;5052872;28;20131;-50
2022/03/25 06:37:07;;;;;;;10.35;6.00;;;;;;;19.30;20.30;99934.38;5052370;28;20076;-53
2022/03/25 06:39:32;;;;;;;15.30;6.38;;;;;;;19.86;20.02;99928.63;5052556;28;20071;-51
2022/03/25 06:41:57;;;;;;;10.02;6.28;;;;;;;20.20;19.95;99936.38;5052739;28;20055;-52
2022/03/25 06:44:23;;;;;;;13.45;6.95;;;;;;;20.89;19.29;99938.03;5052357;28;20409;-51
2022/03/25 06:46:48;;;;;;;13.07;6.72;;;;;;;21.09;19.31;99939.94;5052386;28;20404;-50
2022/03/25 06:49:14;;;;;;;10.32;6.30;;;;;;;21.18;19.07;99945.66;5052024;28;20025;-52
2022/03/25 06:51:40;;;;;;;11.45;7.28;;;;;;;20.51;18.86;99934.63;5051100;28;20065;-52
2022/03/25 06:54:06;;;;;;;16.70;6.82;;;;;;;20.75;19.42;99940.41;5052719;28;20033;-54
2022/03/25 06:56:37;;;;;;;12.02;6.57;;;;;;;20.79;18.61;99933.41;5052726;28;20029;-53
2022/03/25 06:59:04;;;;;;;14.23;6.72;;;;;;;21.29;18.63;99941.88;5052104;28;20382;-51
2022/03/25 07:01:32;;;;;;;16.25;6.80;;;;;;;20.95;19.03;99941.56;5052222;28;20025;-53
2022/03/25 07:03:58;;;;;;;14.50;6.53;;;;;;;22.02;17.91;99944.25;5052173;28;20090;-48
2022/03/25 07:06:24;;;;;;;10.27;6.88;;;;;;;22.62;18.02;99943.56;5051367;28;20069;-51
2022/03/25 07:08:55;;;;;;;9.75;6.70;;;;;;;23.03;17.36;99941.44;5051965;28;20144;-51
2022/03/25 07:11:22;;;;;;;17.45;6.57;;;;;;;23.12;17.54;99946.28;5052280;28;20025;-53
2022/03/25 07:13:48;;;;;;;12.52;6.30;;;;;;;23.29;17.13;99949.41;5051838;28;20036;-51
2022/03/25 07:16:14;;;;;;;15.35;6.95;;;;;;;22.95;16.96;99930.34;5051217;28;20029;-51
2022/03/25 07:18:39;;;;;;;15.00;6.95;;;;;;;21.67;18.15;99947.84;5051311;28;20021;-49
2022/03/25 07:21:05;;;;;;;12.68;7.05;;;;;;;22.34;17.56;99936.91;5051340;28;20096;-50
2022/03/25 07:23:30;;;;;;;16.00;7.32;;;;;;;22.22;17.78;99934.47;5051543;28;20016;-48
2022/03/25 07:25:56;;;;;;;12.68;6.72;;;;;;;22.13;17.41;99941.56;5050935;28;20056;-49
2022/03/25 07:28:22;;;;;;;12.40;6.80;;;;;;;22.11;17.26;99947.25;5050170;28;20021;-48
2022/03/25 07:30:47;;;;;;;13.48;6.82;;;;;;;22.00;17.29;99938.31;5050369;28;20021;-51
2022/03/25 07:33:13;;;;;;;12.35;6.53;;;;;;;22.22;16.93;99924.44;5050887;28;20086;-49
2022/03/25 07:35:38;;;;;;;10.57;6.60;;;;;;;21.21;17.79;99935.09;5050847;28;20021;-50
2022/03/25 07:38:06;;;;;;;10.73;6.72;;;;;;;22.10;17.52;99937.47;5050836;28;20024;-49
2022/03/25 07:40:31;;;;;;;12.77;6.70;;;;;;;22.87;16.91;99930.97;5050773;28;20013;-50
2022/03/25 07:42:58;;;;;;;13.15;6.82;;;;;;;23.88;16.49;99938.63;5051204;28;20032;-51
2022/03/25 07:45:24;;;;;;;12.18;6.88;;;;;;;22.13;17.17;99930.72;5050781;28;20025;-49
2022/03/25 07:47:50;;;;;;;14.05;7.10;;;;;;;22.52;16.91;99938.19;5050248;28;20024;-52
2022/03/25 07:50:19;;;;;;;15.20;7.53;;;;;;;22.51;16.71;99923.00;5050614;28;20111;-49
2022/03/25 07:52:46;;;;;;;16.00;7.45;;;;;;;22.76;16.79;99920.16;5050493;28;20021;-50
2022/03/25 07:55:13;;;;;;;22.92;7.57;;;;;;;23.00;17.08;99911.34;5050873;28;20096;-51
2022/03/25 07:57:39;;;;;;;13.27;7.05;;;;;;;23.46;16.20;99921.88;5050716;28;20041;-53
2022/03/25 08:00:12;;;;;;;16.30;7.82;;;;;;;23.05;16.59;99908.59;5050310;28;20024;-50
2022/03/25 08:02:43;;;;;;;16.08;7.55;;;;;;;23.09;16.88;99922.41;5050472;28;20106;-50
2022/03/25 08:05:09;;;;;;;10.25;7.03;;;;;;;22.20;17.36;99921.19;5050216;28;20041;-54
2022/03/25 08:07:43;;;;;;;14.23;7.00;;;;;;;23.17;16.85;99919.09;5050822;28;20033;-51
2022/03/25 08:10:08;;;;;;;12.45;6.82;;;;;;;23.58;16.77;99903.28;5050829;28;20020;-52
2022/03/25 08:12:35;;;;;;;12.35;7.18;;;;;;;23.78;16.29;99910.47;5050764;28;20075;-52
2022/03/25 08:15:00;;;;;;;13.07;7.55;;;;;;;23.43;16.50;99908.84;5050307;28;20025;-48
2022/03/25 08:17:26;;;;;;;14.10;7.50;;;;;;;24.03;17.36;99908.56;5050266;28;20408;-53
2022/03/25 08:19:52;;;;;;;14.25;7.60;;;;;;;24.26;16.03;99900.69;5050572;28;20414;-49
2022/03/25 08:22:18;;;;;;;19.17;7.45;;;;;;;24.48;16.11;99897.41;5050399;28;20025;-51
2022/03/25 08:30:12;;;;;;;23.83;8.48;;;;;;;24.30;15.87;99899.00;5050076;28;20035;-53
2022/03/25 08:32:37;;;;;;;16.60;8.98;;;;;;;24.73;15.12;99891.66;5050624;28;20017;-52
2022/03/25 08:35:03;;;;;;;17.88;8.60;;;;;;;23.68;15.67;99894.22;5050525;28;20103;-49
2022/03/25 08:37:29;;;;;;;14.43;8.38;;;;;;;23.58;15.73;99888.91;5049972;28;20404;-49
2022/03/25 08:39:54;;;;;;;16.95;8.68;;;;;;;23.86;15.67;99883.75;5049221;28;20476;-51
2022/03/25 08:42:19;;;;;;;24.88;10.38;;;;;;;23.42;16.36;99885.53;5049730;28;20072;-51
2022/03/25 08:44:45;;;;;;;15.80;8.88;;;;;;;23.68;15.93;99877.91;5049769;28;20021;-52
2022/03/25 08:47:10;;;;;;;17.98;8.95;;;;;;;23.53;15.88;99878.91;5050221;28;20563;-49
2022/03/25 08:49:36;;;;;;;36.17;9.77;;;;;;;23.38;15.87;99877.13;5049851;28;20428;-49
2022/03/25 08:52:01;;;;;;;16.00;8.70;;;;;;;22.71;16.51;99865.94;5050142;28;20092;-49
2022/03/25 08:54:27;;;;;;;22.90;9.18;;;;;;;23.08;16.54;99861.91;5050534;28;20559;-49
2022/03/25 08:56:53;;;;;;;19.80;9.18;;;;;;;23.96;15.58;99859.19;5050090;28;20032;-52
2022/03/25 08:59:19;;;;;;;35.60;10.48;;;;;;;23.42;15.79;99858.38;5049625;28;20447;-49
2022/03/25 09:01:45;;;;;;;40.08;10.98;;;;;;;23.60;15.55;99867.69;5049960;28;20025;-50
2022/03/25 09:04:10;;;;;;;29.63;10.27;;;;;;;23.91;15.34;99846.47;5049534;28;20029;-49
2022/03/25 09:06:36;;;;;;;18.20;9.50;;;;;;;23.50;15.40;99855.03;5049614;28;20049;-52
2022/03/25 09:09:01;;;;;;;25.50;10.70;;;;;;;24.33;14.87;99857.63;5050138;28;20062;-49
2022/03/25 09:11:27;;;;;;;20.95;10.05;;;;;;;23.88;14.94;99854.41;5049791;28;20033;-50
2022/03/25 09:13:52;;;;;;;24.05;10.50;;;;;;;24.47;14.81;99858.53;5050232;28;20102;-49
2022/03/25 09:16:18;;;;;;;26.48;10.77;;;;;;;23.62;15.33;99849.19;5049540;28;20500;-49
2022/03/25 09:18:44;;;;;;;27.20;9.88;;;;;;;24.06;15.06;99844.66;5049445;28;20104;-48
2022/03/25 09:21:10;;;;;;;24.73;10.07;;;;;;;23.32;15.44;99837.56;5049354;28;20021;-50
2022/03/25 09:23:35;;;;;;;20.52;9.60;;;;;;;23.27;15.74;99834.88;5049506;28;20025;-49
2022/03/25 09:26:01;;;;;;;16.25;9.30;;;;;;;23.19;15.70;99832.78;5049603;28;20028;-51
2022/03/25 09:28:27;;;;;;;49.58;11.25;;;;;;;22.90;15.87;99843.56;5049061;28;20017;-50
2022/03/25 09:30:53;;;;;;;20.67;9.60;;;;;;;23.18;15.56;99842.00;5049617;28;20071;-50
2022/03/25 09:33:18;;;;;;;17.42;9.32;;;;;;;23.43;15.34;99824.66;5049432;28;20021;-48
2022/03/25 09:35:45;;;;;;;19.33;9.50;;;;;;;23.62;15.43;99835.63;5049323;28;20078;-50
2022/03/25 09:38:11;;;;;;;18.25;9.63;;;;;;;23.42;15.43;99842.06;5049276;28;20027;-52
2022/03/25 09:40:41;;;;;;;20.77;8.82;;;;;;;23.20;15.38;99840.63;5049379;28;20096;-52
2022/03/25 09:43:07;;;;;;;19.13;9.50;;;;;;;23.00;15.70;99844.31;5049584;28;20021;-48
2022/03/25 09:45:34;;;;;;;16.88;9.65;;;;;;;23.28;15.71;99836.47;5049206;28;20111;-51
2022/03/25 09:47:59;;;;;;;14.13;9.10;;;;;;;22.92;15.77;99828.59;5049681;28;20025;-48
2022/03/25 09:50:27;;;;;;;17.75;9.20;;;;;;;22.94;16.02;99840.03;5050098;28;20095;-50
2022/03/25 09:52:53;;;;;;;18.27;9.27;;;;;;;22.84;16.20;99837.38;5053464;28;20056;-52
2022/03/25 09:55:20;;;;;;;17.35;9.55;;;;;;;23.08;16.09;99828.53;5052694;28;20028;-50
2022/03/25 09:57:46;;;;;;;18.63;9.38;;;;;;;23.24;15.77;99835.44;5052915;28;20123;-49
2022/03/25 10:00:16;;;;;;;16.05;9.43;;;;;;;23.00;15.67;99832.66;5052734;28;20021;-50
2022/03/25 10:02:42;;;;;;;16.48;9.05;;;;;;;23.83;15.64;99838.94;5052978;28;20163;-48
2022/03/25 10:05:19;;;;;;;14.85;8.68;;;;;;;24.33;15.35;99825.81;5052586;28;20041;-48
2022/03/25 10:07:52;;;;;;;16.08;8.77;;;;;;;23.83;15.52;99819.91;5052789;28;20043;-51
2022/03/25 10:10:20;;;;;;;27.02;9.70;;;;;;;23.93;15.16;99821.72;5052315;28;20407;-49
2022/03/25 10:12:47;;;;;;;15.10;8.75;;;;;;;23.55;15.43;99825.09;5052879;28;20024;-50
2022/03/25 10:15:33;;;;;;;17.30;8.60;;;;;;;23.85;15.14;99838.66;5053068;28;20620;-50
2022/03/25 10:18:03;;;;;;;12.82;8.93;;;;;;;23.42;15.43;99832.00;5052210;28;20031;-50
2022/03/25 10:20:42;;;;;;;14.48;9.02;;;;;;;23.62;15.37;99820.13;5052867;28;20076;-49
2022/03/25 10:23:18;;;;;;;20.23;8.57;;;;;;;23.48;15.57;99834.69;5052518;28;20017;-49
2022/03/25 10:25:47;;;;;;;14.55;6.85;;;;;;;23.84;14.68;99827.00;5052676;28;20032;-49
2022/03/25 10:28:31;;;;;;;16.05;6.47;;;;;;;24.63;13.60;99825.69;5052538;28;20496;-50
2022/03/25 10:31:08;;;;;;;12.07;6.95;;;;;;;24.83;13.83;99819.13;5051796;28;20112;-50
2022/03/25 10:33:45;;;;;;;15.80;8.55;;;;;;;24.97;14.17;99825.44;5052376;28;20108;-49
2022/03/25 10:36:14;;;;;;;14.75;8.88;;;;;;;25.20;13.76;99829.13;5052219;28;20017;-48
2022/03/25 10:38:47;;;;;;;;;;;;;;;24.97;13.67;99825.44;5052692;28;20025;-49
2022/03/25 10:41:18;;;;;;;13.00;7.10;;;;;;;24.35;13.51;99814.63;5052480;28;19924;-50
2022/03/25 10:43:53;;;;;;;12.93;6.00;;;;;;;23.81;13.43;99817.50;5052702;28;20460;-51
2022/03/25 10:46:27;;;;;;;14.57;6.03;;;;;;;24.27;13.31;99810.66;5052476;28;20110;-51
2022/03/25 10:48:56;;;;;;;29.45;6.60;;;;;;;23.97;12.81;99809.97;5051991;28;20443;-51
2022/03/25 10:51:21;;;;;;;11.90;5.83;;;;;;;23.55;12.71;99808.81;5051871;28;20037;-49
2022/03/25 10:53:56;;;;;;;14.98;5.88;;;;;;;23.24;12.89;99813.72;5052245;28;20183;-51
2022/03/25 10:56:22;;;;;;;12.18;5.78;;;;;;;23.76;12.56;99812.09;5052201;28;20047;-50
2022/03/25 10:58:55;;;;;;;11.82;6.47;;;;;;;23.41;12.88;99800.50;5052159;28;20021;-53
2022/03/25 11:01:21;;;;;;;13.18;5.75;;;;;;;23.64;12.38;99800.81;5051683;28;20021;-49
2022/03/25 11:03:51;;;;;;;10.05;5.30;;;;;;;23.66;12.02;99801.34;5050884;28;20134;-49
2022/03/25 11:06:18;;;;;;;17.95;5.38;;;;;;;23.02;12.31;99806.84;5051288;28;20544;-51
2022/03/25 11:08:45;;;;;;;12.00;5.32;;;;;;;23.36;12.54;99788.91;5051731;28;20036;-50
2022/03/25 11:11:13;;;;;;;16.42;5.25;;;;;;;23.14;12.26;99786.69;5051897;28;20104;-52
2022/03/25 11:13:39;;;;;;;18.80;5.17;;;;;;;23.63;12.09;99796.50;5051513;28;20056;-50
2022/03/25 11:16:08;;;;;;;11.88;5.25;;;;;;;23.83;12.02;99792.75;5051260;28;20092;-49
2022/03/25 11:18:35;;;;;;;14.18;4.68;;;;;;;23.12;11.81;99788.88;5051116;28;20035;-51
2022/03/25 11:21:04;;;;;;;15.52;4.93;;;;;;;23.18;11.84;99790.44;5051722;28;20100;-51
2022/03/25 11:23:41;;;;;;;7.13;4.40;;;;;;;23.55;11.66;99789.81;5051553;28;20043;-51
2022/03/25 11:26:09;;;;;;;10.15;4.93;;;;;;;23.80;11.63;99788.72;5051498;28;20103;-50
2022/03/25 11:28:36;;;;;;;7.65;4.10;;;;;;;23.69;10.87;99776.31;5051489;28;20021;-51
2022/03/25 11:31:04;;;;;;;8.73;4.50;;;;;;;23.46;10.87;99782.56;5050518;28;20051;-49